sensor_id;sensor_type;location;lat;lon;timestamp;P1;durP1;ratioP1;P2;durP2;ratioP2
57325;SDS011;43161;50.950;18.224;2023-01-01T00:01:45;16.60;;;8.80;;
57325;SDS011;43161;50.950;18.224;2023-01-01T00:04:12;17.10;;;8.00;;
57325;SDS011;43161;50.950;18.224;2023-01-01T00:06:39;16.50;;;8.60;;
57325;SDS011;43161;50.950;18.224;2023-01-01T00:09:05;16.20;;;8.80;;
57325;SDS011;43161;50.950;18.224;2023-01-01T00:11:50;17.60;;;8.80;;
57325;SDS011;43161;50.950;18.224;2023-01-01T00:14:16;19.20;;;9.70;;
57325;SDS011;43161;50.950;18.224;2023-01-01T00:16:42;19.20;;;9.80;;
57325;SDS011;43161;50.950;18.224;2023-01-01T00:19:07;18.80;;;9.90;;
57325;SDS011;43161;50.950;18.224;2023-01-01T00:21:33;17.30;;;9.40;;
57325;SDS011;43161;50.950;18.224;2023-01-01T00:23:59;21.30;;;10.10;;
57325;SDS011;43161;50.950;18.224;2023-01-01T00:26:24;18.30;;;9.80;;
57325;SDS011;43161;50.950;18.224;2023-01-01T00:28:50;19.10;;;9.80;;
57325;SDS011;43161;50.950;18.224;2023-01-01T00:31:17;19.30;;;10.00;;
57325;SDS011;43161;50.950;18.224;2023-01-01T00:33:51;18.50;;;9.50;;
57325;SDS011;43161;50.950;18.224;2023-01-01T00:36:18;16.50;;;8.60;;
57325;SDS011;43161;50.950;18.224;2023-01-01T00:38:45;17.50;;;8.70;;
57325;SDS011;43161;50.950;18.224;2023-01-01T00:41:11;17.10;;;9.00;;
57325;SDS011;43161;50.950;18.224;2023-01-01T00:43:38;18.90;;;10.20;;
57325;SDS011;43161;50.950;18.224;2023-01-01T00:46:04;19.20;;;9.70;;
57325;SDS011;43161;50.950;18.224;2023-01-01T00:48:31;17.60;;;9.40;;
57325;SDS011;43161;50.950;18.224;2023-01-01T00:50:57;18.60;;;10.00;;
57325;SDS011;43161;50.950;18.224;2023-01-01T00:53:23;17.40;;;9.30;;
57325;SDS011;43161;50.950;18.224;2023-01-01T00:55:50;18.60;;;10.50;;
57325;SDS011;43161;50.950;18.224;2023-01-01T00:58:16;18.50;;;9.20;;
57325;SDS011;43161;50.950;18.224;2023-01-01T01:00:43;16.00;;;8.70;;
57325;SDS011;43161;50.950;18.224;2023-01-01T01:03:10;17.20;;;8.80;;
57325;SDS011;43161;50.950;18.224;2023-01-01T01:05:55;18.00;;;8.60;;
57325;SDS011;43161;50.950;18.224;2023-01-01T01:08:21;16.80;;;8.40;;
57325;SDS011;43161;50.950;18.224;2023-01-01T01:10:48;16.00;;;8.20;;
57325;SDS011;43161;50.950;18.224;2023-01-01T01:13:14;16.70;;;8.40;;
57325;SDS011;43161;50.950;18.224;2023-01-01T01:15:40;14.90;;;7.60;;
57325;SDS011;43161;50.950;18.224;2023-01-01T01:18:06;15.00;;;7.20;;
57325;SDS011;43161;50.950;18.224;2023-01-01T01:20:32;17.00;;;8.70;;
57325;SDS011;43161;50.950;18.224;2023-01-01T01:22:59;16.60;;;7.80;;
57325;SDS011;43161;50.950;18.224;2023-01-01T01:25:24;15.90;;;8.10;;
57325;SDS011;43161;50.950;18.224;2023-01-01T01:27:50;17.40;;;7.90;;
57325;SDS011;43161;50.950;18.224;2023-01-01T01:30:16;16.60;;;8.30;;
57325;SDS011;43161;50.950;18.224;2023-01-01T01:32:42;15.10;;;7.70;;
57325;SDS011;43161;50.950;18.224;2023-01-01T01:35:09;16.40;;;8.00;;
57325;SDS011;43161;50.950;18.224;2023-01-01T01:37:35;15.70;;;8.00;;
57325;SDS011;43161;50.950;18.224;2023-01-01T01:40:01;16.00;;;7.20;;
57325;SDS011;43161;50.950;18.224;2023-01-01T01:42:27;16.30;;;7.60;;
57325;SDS011;43161;50.950;18.224;2023-01-01T01:44:57;17.10;;;8.10;;
57325;SDS011;43161;50.950;18.224;2023-01-01T01:52:57;17.20;;;7.30;;
57325;SDS011;43161;50.950;18.224;2023-01-01T01:55:25;16.20;;;7.90;;
57325;SDS011;43161;50.950;18.224;2023-01-01T01:57:52;16.80;;;7.90;;
57325;SDS011;43161;50.950;18.224;2023-01-01T02:00:18;17.50;;;8.40;;
57325;SDS011;43161;50.950;18.224;2023-01-01T02:02:47;16.10;;;8.00;;
57325;SDS011;43161;50.950;18.224;2023-01-01T02:05:17;17.20;;;8.60;;
57325;SDS011;43161;50.950;18.224;2023-01-01T02:07:45;17.70;;;8.90;;
57325;SDS011;43161;50.950;18.224;2023-01-01T02:10:11;20.40;;;10.50;;
57325;SDS011;43161;50.950;18.224;2023-01-01T02:12:37;21.60;;;10.40;;
57325;SDS011;43161;50.950;18.224;2023-01-01T02:15:03;16.20;;;7.90;;
57325;SDS011;43161;50.950;18.224;2023-01-01T02:17:32;18.40;;;9.20;;
57325;SDS011;43161;50.950;18.224;2023-01-01T02:30:45;17.00;;;8.60;;
57325;SDS011;43161;50.950;18.224;2023-01-01T02:33:21;16.30;;;8.90;;
57325;SDS011;43161;50.950;18.224;2023-01-01T02:35:52;18.40;;;9.20;;
57325;SDS011;43161;50.950;18.224;2023-01-01T02:41:01;17.30;;;8.20;;
57325;SDS011;43161;50.950;18.224;2023-01-01T02:43:28;16.50;;;7.80;;
57325;SDS011;43161;50.950;18.224;2023-01-01T02:45:54;16.10;;;7.70;;
57325;SDS011;43161;50.950;18.224;2023-01-01T02:56:45;16.80;;;8.20;;
57325;SDS011;43161;50.950;18.224;2023-01-01T03:07:30;16.30;;;8.40;;
57325;SDS011;43161;50.950;18.224;2023-01-01T03:10:08;17.20;;;9.10;;
57325;SDS011;43161;50.950;18.224;2023-01-01T03:12:43;18.30;;;8.40;;
57325;SDS011;43161;50.950;18.224;2023-01-01T03:15:17;20.00;;;8.20;;
57325;SDS011;43161;50.950;18.224;2023-01-01T03:17:53;17.60;;;8.30;;
57325;SDS011;43161;50.950;18.224;2023-01-01T03:20:30;17.70;;;8.00;;
57325;SDS011;43161;50.950;18.224;2023-01-01T03:23:00;17.50;;;7.90;;
57325;SDS011;43161;50.950;18.224;2023-01-01T03:25:29;13.90;;;6.90;;
57325;SDS011;43161;50.950;18.224;2023-01-01T03:28:15;16.90;;;8.20;;
57325;SDS011;43161;50.950;18.224;2023-01-01T03:30:44;16.70;;;8.10;;
57325;SDS011;43161;50.950;18.224;2023-01-01T03:33:14;16.70;;;9.00;;
57325;SDS011;43161;50.950;18.224;2023-01-01T03:35:43;18.60;;;8.50;;
57325;SDS011;43161;50.950;18.224;2023-01-01T03:38:21;16.60;;;8.20;;
57325;SDS011;43161;50.950;18.224;2023-01-01T03:41:00;16.90;;;7.30;;
57325;SDS011;43161;50.950;18.224;2023-01-01T03:46:33;14.80;;;7.70;;
57325;SDS011;43161;50.950;18.224;2023-01-01T03:49:00;17.90;;;8.30;;
57325;SDS011;43161;50.950;18.224;2023-01-01T04:05:44;15.60;;;8.00;;
57325;SDS011;43161;50.950;18.224;2023-01-01T04:08:10;15.30;;;8.00;;
57325;SDS011;43161;50.950;18.224;2023-01-01T04:10:39;16.40;;;7.90;;
57325;SDS011;43161;50.950;18.224;2023-01-01T04:13:07;16.20;;;7.70;;
57325;SDS011;43161;50.950;18.224;2023-01-01T04:15:33;15.50;;;7.90;;
57325;SDS011;43161;50.950;18.224;2023-01-01T04:18:03;18.60;;;8.40;;
57325;SDS011;43161;50.950;18.224;2023-01-01T04:20:29;16.90;;;7.90;;
57325;SDS011;43161;50.950;18.224;2023-01-01T04:22:59;14.40;;;7.10;;
57325;SDS011;43161;50.950;18.224;2023-01-01T04:25:25;15.50;;;7.70;;
57325;SDS011;43161;50.950;18.224;2023-01-01T04:27:52;16.80;;;8.10;;
57325;SDS011;43161;50.950;18.224;2023-01-01T04:30:18;18.00;;;8.30;;
57325;SDS011;43161;50.950;18.224;2023-01-01T04:32:44;18.10;;;8.80;;
57325;SDS011;43161;50.950;18.224;2023-01-01T04:35:11;15.90;;;8.50;;
57325;SDS011;43161;50.950;18.224;2023-01-01T04:37:39;20.00;;;9.10;;
57325;SDS011;43161;50.950;18.224;2023-01-01T04:40:06;15.40;;;7.40;;
57325;SDS011;43161;50.950;18.224;2023-01-01T04:42:33;16.10;;;7.50;;
57325;SDS011;43161;50.950;18.224;2023-01-01T04:44:59;15.50;;;7.50;;
57325;SDS011;43161;50.950;18.224;2023-01-01T04:47:25;15.70;;;7.40;;
57325;SDS011;43161;50.950;18.224;2023-01-01T04:49:52;16.00;;;8.40;;
57325;SDS011;43161;50.950;18.224;2023-01-01T04:52:18;15.00;;;6.90;;
57325;SDS011;43161;50.950;18.224;2023-01-01T04:54:44;16.00;;;8.00;;
57325;SDS011;43161;50.950;18.224;2023-01-01T04:57:10;15.20;;;7.30;;
57325;SDS011;43161;50.950;18.224;2023-01-01T04:59:36;15.30;;;6.60;;
57325;SDS011;43161;50.950;18.224;2023-01-01T05:02:01;15.10;;;7.50;;
57325;SDS011;43161;50.950;18.224;2023-01-01T05:04:27;16.40;;;7.20;;
57325;SDS011;43161;50.950;18.224;2023-01-01T05:06:53;15.30;;;6.80;;
57325;SDS011;43161;50.950;18.224;2023-01-01T05:09:20;14.00;;;6.70;;
57325;SDS011;43161;50.950;18.224;2023-01-01T05:11:46;14.00;;;6.40;;
57325;SDS011;43161;50.950;18.224;2023-01-01T05:14:12;15.40;;;7.20;;
57325;SDS011;43161;50.950;18.224;2023-01-01T05:16:38;14.80;;;6.90;;
57325;SDS011;43161;50.950;18.224;2023-01-01T05:19:04;17.00;;;7.80;;
57325;SDS011;43161;50.950;18.224;2023-01-01T05:21:32;14.60;;;7.00;;
57325;SDS011;43161;50.950;18.224;2023-01-01T05:24:03;13.60;;;6.30;;
57325;SDS011;43161;50.950;18.224;2023-01-01T05:26:31;15.10;;;6.60;;
57325;SDS011;43161;50.950;18.224;2023-01-01T05:29:02;14.60;;;6.40;;
57325;SDS011;43161;50.950;18.224;2023-01-01T05:31:29;15.00;;;6.40;;
57325;SDS011;43161;50.950;18.224;2023-01-01T05:33:56;14.00;;;6.30;;
57325;SDS011;43161;50.950;18.224;2023-01-01T05:36:22;11.90;;;5.20;;
57325;SDS011;43161;50.950;18.224;2023-01-01T05:38:50;13.50;;;5.60;;
57325;SDS011;43161;50.950;18.224;2023-01-01T05:41:16;13.10;;;5.90;;
57325;SDS011;43161;50.950;18.224;2023-01-01T05:43:44;13.60;;;5.60;;
57325;SDS011;43161;50.950;18.224;2023-01-01T05:46:11;12.20;;;5.60;;
57325;SDS011;43161;50.950;18.224;2023-01-01T05:48:39;13.20;;;5.40;;
57325;SDS011;43161;50.950;18.224;2023-01-01T05:53:35;12.20;;;5.90;;
57325;SDS011;43161;50.950;18.224;2023-01-01T05:56:02;13.00;;;5.80;;
57325;SDS011;43161;50.950;18.224;2023-01-01T05:58:28;11.80;;;5.30;;
57325;SDS011;43161;50.950;18.224;2023-01-01T06:00:56;12.30;;;5.70;;
57325;SDS011;43161;50.950;18.224;2023-01-01T06:03:22;15.20;;;5.30;;
57325;SDS011;43161;50.950;18.224;2023-01-01T06:05:48;13.70;;;5.60;;
57325;SDS011;43161;50.950;18.224;2023-01-01T06:08:14;13.60;;;6.30;;
57325;SDS011;43161;50.950;18.224;2023-01-01T06:10:40;13.50;;;5.60;;
57325;SDS011;43161;50.950;18.224;2023-01-01T06:13:06;12.40;;;5.50;;
57325;SDS011;43161;50.950;18.224;2023-01-01T06:15:31;12.00;;;5.20;;
57325;SDS011;43161;50.950;18.224;2023-01-01T06:17:57;12.20;;;5.00;;
57325;SDS011;43161;50.950;18.224;2023-01-01T06:20:23;11.80;;;4.90;;
57325;SDS011;43161;50.950;18.224;2023-01-01T06:22:49;10.90;;;4.70;;
57325;SDS011;43161;50.950;18.224;2023-01-01T06:25:15;11.00;;;4.70;;
57325;SDS011;43161;50.950;18.224;2023-01-01T06:27:41;11.60;;;4.40;;
57325;SDS011;43161;50.950;18.224;2023-01-01T06:30:07;10.60;;;4.30;;
57325;SDS011;43161;50.950;18.224;2023-01-01T06:32:33;10.80;;;4.20;;
57325;SDS011;43161;50.950;18.224;2023-01-01T06:34:59;12.00;;;4.30;;
57325;SDS011;43161;50.950;18.224;2023-01-01T06:37:26;11.80;;;4.30;;
57325;SDS011;43161;50.950;18.224;2023-01-01T06:39:52;10.50;;;4.00;;
57325;SDS011;43161;50.950;18.224;2023-01-01T06:42:18;13.20;;;4.00;;
57325;SDS011;43161;50.950;18.224;2023-01-01T06:44:44;11.60;;;3.90;;
57325;SDS011;43161;50.950;18.224;2023-01-01T06:47:10;11.30;;;4.40;;
57325;SDS011;43161;50.950;18.224;2023-01-01T06:49:35;11.90;;;5.30;;
57325;SDS011;43161;50.950;18.224;2023-01-01T06:52:01;10.80;;;3.90;;
57325;SDS011;43161;50.950;18.224;2023-01-01T06:54:27;11.70;;;4.30;;
57325;SDS011;43161;50.950;18.224;2023-01-01T06:56:53;10.60;;;4.20;;
57325;SDS011;43161;50.950;18.224;2023-01-01T06:59:18;10.90;;;3.30;;
57325;SDS011;43161;50.950;18.224;2023-01-01T07:01:44;10.90;;;4.20;;
57325;SDS011;43161;50.950;18.224;2023-01-01T07:04:11;11.40;;;4.80;;
57325;SDS011;43161;50.950;18.224;2023-01-01T07:06:38;13.30;;;4.80;;
57325;SDS011;43161;50.950;18.224;2023-01-01T07:09:05;13.90;;;5.50;;
57325;SDS011;43161;50.950;18.224;2023-01-01T07:11:32;15.80;;;5.70;;
57325;SDS011;43161;50.950;18.224;2023-01-01T07:13:58;18.60;;;6.60;;
57325;SDS011;43161;50.950;18.224;2023-01-01T07:16:24;16.50;;;6.70;;
57325;SDS011;43161;50.950;18.224;2023-01-01T07:18:50;16.20;;;7.00;;
57325;SDS011;43161;50.950;18.224;2023-01-01T07:21:59;12.90;;;5.40;;
57325;SDS011;43161;50.950;18.224;2023-01-01T07:24:09;12.30;;;5.20;;
57325;SDS011;43161;50.950;18.224;2023-01-01T07:26:37;11.90;;;5.00;;
57325;SDS011;43161;50.950;18.224;2023-01-01T07:29:03;12.20;;;4.90;;
57325;SDS011;43161;50.950;18.224;2023-01-01T07:31:29;12.40;;;5.20;;
57325;SDS011;43161;50.950;18.224;2023-01-01T07:33:55;12.80;;;5.00;;
57325;SDS011;43161;50.950;18.224;2023-01-01T07:36:21;11.60;;;4.80;;
57325;SDS011;43161;50.950;18.224;2023-01-01T07:38:47;11.60;;;4.40;;
57325;SDS011;43161;50.950;18.224;2023-01-01T07:41:13;11.00;;;4.10;;
57325;SDS011;43161;50.950;18.224;2023-01-01T07:43:38;10.40;;;4.60;;
57325;SDS011;43161;50.950;18.224;2023-01-01T07:46:04;8.90;;;3.50;;
57325;SDS011;43161;50.950;18.224;2023-01-01T07:48:31;10.00;;;3.60;;
57325;SDS011;43161;50.950;18.224;2023-01-01T07:50:57;9.80;;;3.90;;
57325;SDS011;43161;50.950;18.224;2023-01-01T07:53:22;10.50;;;4.10;;
57325;SDS011;43161;50.950;18.224;2023-01-01T07:55:49;9.30;;;3.70;;
57325;SDS011;43161;50.950;18.224;2023-01-01T07:58:15;10.50;;;3.80;;
57325;SDS011;43161;50.950;18.224;2023-01-01T08:00:43;10.80;;;3.70;;
57325;SDS011;43161;50.950;18.224;2023-01-01T08:03:10;11.20;;;3.80;;
57325;SDS011;43161;50.950;18.224;2023-01-01T08:05:36;11.00;;;3.80;;
57325;SDS011;43161;50.950;18.224;2023-01-01T08:08:02;10.70;;;4.40;;
57325;SDS011;43161;50.950;18.224;2023-01-01T08:10:29;11.00;;;4.30;;
57325;SDS011;43161;50.950;18.224;2023-01-01T08:13:02;11.00;;;4.50;;
57325;SDS011;43161;50.950;18.224;2023-01-01T08:15:30;12.00;;;4.90;;
57325;SDS011;43161;50.950;18.224;2023-01-01T08:17:57;11.90;;;4.70;;
57325;SDS011;43161;50.950;18.224;2023-01-01T08:20:28;14.40;;;5.30;;
57325;SDS011;43161;50.950;18.224;2023-01-01T08:22:54;13.40;;;4.50;;
57325;SDS011;43161;50.950;18.224;2023-01-01T08:25:20;11.40;;;4.20;;
57325;SDS011;43161;50.950;18.224;2023-01-01T08:27:46;11.10;;;4.50;;
57325;SDS011;43161;50.950;18.224;2023-01-01T08:30:13;10.70;;;4.20;;
57325;SDS011;43161;50.950;18.224;2023-01-01T08:32:39;10.70;;;4.50;;
57325;SDS011;43161;50.950;18.224;2023-01-01T08:35:05;11.50;;;4.30;;
57325;SDS011;43161;50.950;18.224;2023-01-01T08:37:32;10.50;;;4.00;;
57325;SDS011;43161;50.950;18.224;2023-01-01T08:39:57;12.40;;;4.50;;
57325;SDS011;43161;50.950;18.224;2023-01-01T08:42:23;13.50;;;5.80;;
57325;SDS011;43161;50.950;18.224;2023-01-01T08:44:49;13.90;;;5.40;;
57325;SDS011;43161;50.950;18.224;2023-01-01T08:47:15;12.20;;;5.00;;
57325;SDS011;43161;50.950;18.224;2023-01-01T08:49:50;14.50;;;5.50;;
57325;SDS011;43161;50.950;18.224;2023-01-01T08:52:17;14.80;;;5.60;;
57325;SDS011;43161;50.950;18.224;2023-01-01T08:54:43;15.80;;;5.80;;
57325;SDS011;43161;50.950;18.224;2023-01-01T08:57:09;13.00;;;5.10;;
57325;SDS011;43161;50.950;18.224;2023-01-01T08:59:35;13.40;;;5.60;;
57325;SDS011;43161;50.950;18.224;2023-01-01T09:02:01;13.60;;;5.80;;
57325;SDS011;43161;50.950;18.224;2023-01-01T09:04:27;14.80;;;5.80;;
57325;SDS011;43161;50.950;18.224;2023-01-01T09:06:53;14.60;;;6.00;;
57325;SDS011;43161;50.950;18.224;2023-01-01T09:09:18;21.50;;;10.80;;
57325;SDS011;43161;50.950;18.224;2023-01-01T09:14:31;13.40;;;6.20;;
57325;SDS011;43161;50.950;18.224;2023-01-01T09:16:57;14.50;;;6.40;;
57325;SDS011;43161;50.950;18.224;2023-01-01T09:19:23;12.60;;;5.80;;
57325;SDS011;43161;50.950;18.224;2023-01-01T09:21:49;13.90;;;6.00;;
57325;SDS011;43161;50.950;18.224;2023-01-01T09:24:15;12.80;;;5.10;;
57325;SDS011;43161;50.950;18.224;2023-01-01T09:26:41;10.10;;;4.30;;
57325;SDS011;43161;50.950;18.224;2023-01-01T09:29:07;11.30;;;4.20;;
57325;SDS011;43161;50.950;18.224;2023-01-01T09:31:32;10.10;;;4.30;;
57325;SDS011;43161;50.950;18.224;2023-01-01T09:34:00;12.40;;;4.70;;
57325;SDS011;43161;50.950;18.224;2023-01-01T09:36:27;11.50;;;5.00;;
57325;SDS011;43161;50.950;18.224;2023-01-01T09:38:55;11.40;;;4.90;;
57325;SDS011;43161;50.950;18.224;2023-01-01T09:41:31;11.90;;;5.00;;
57325;SDS011;43161;50.950;18.224;2023-01-01T09:46:52;12.00;;;5.50;;
57325;SDS011;43161;50.950;18.224;2023-01-01T09:50:02;13.40;;;5.70;;
57325;SDS011;43161;50.950;18.224;2023-01-01T09:52:08;13.00;;;5.80;;
57325;SDS011;43161;50.950;18.224;2023-01-01T09:54:36;13.40;;;5.50;;
57325;SDS011;43161;50.950;18.224;2023-01-01T09:57:06;12.30;;;5.50;;
57325;SDS011;43161;50.950;18.224;2023-01-01T09:59:35;12.10;;;5.10;;
57325;SDS011;43161;50.950;18.224;2023-01-01T10:04:36;12.90;;;5.30;;
57325;SDS011;43161;50.950;18.224;2023-01-01T10:12:29;12.80;;;4.90;;
57325;SDS011;43161;50.950;18.224;2023-01-01T10:15:00;12.50;;;4.80;;
57325;SDS011;43161;50.950;18.224;2023-01-01T10:17:33;13.40;;;5.40;;
57325;SDS011;43161;50.950;18.224;2023-01-01T10:20:09;13.80;;;5.20;;
57325;SDS011;43161;50.950;18.224;2023-01-01T10:22:57;12.80;;;5.50;;
57325;SDS011;43161;50.950;18.224;2023-01-01T10:25:26;13.60;;;4.80;;
57325;SDS011;43161;50.950;18.224;2023-01-01T10:28:02;13.70;;;5.30;;
57325;SDS011;43161;50.950;18.224;2023-01-01T10:30:35;13.30;;;5.10;;
57325;SDS011;43161;50.950;18.224;2023-01-01T10:33:04;12.70;;;5.40;;
57325;SDS011;43161;50.950;18.224;2023-01-01T10:38:23;13.90;;;5.50;;
57325;SDS011;43161;50.950;18.224;2023-01-01T10:40:50;20.90;;;9.80;;
57325;SDS011;43161;50.950;18.224;2023-01-01T10:43:18;13.20;;;5.20;;
57325;SDS011;43161;50.950;18.224;2023-01-01T10:45:45;13.30;;;6.30;;
57325;SDS011;43161;50.950;18.224;2023-01-01T10:50:51;15.10;;;7.20;;
57325;SDS011;43161;50.950;18.224;2023-01-01T10:53:22;12.80;;;5.30;;
57325;SDS011;43161;50.950;18.224;2023-01-01T10:55:50;13.30;;;5.50;;
57325;SDS011;43161;50.950;18.224;2023-01-01T11:01:31;16.30;;;6.50;;
57325;SDS011;43161;50.950;18.224;2023-01-01T11:06:45;20.40;;;12.70;;
57325;SDS011;43161;50.950;18.224;2023-01-01T11:14:48;17.00;;;8.60;;
57325;SDS011;43161;50.950;18.224;2023-01-01T11:17:38;125.10;;;113.50;;
57325;SDS011;43161;50.950;18.224;2023-01-01T11:20:03;86.50;;;74.40;;
57325;SDS011;43161;50.950;18.224;2023-01-01T11:27:52;68.60;;;60.50;;
57325;SDS011;43161;50.950;18.224;2023-01-01T11:30:37;86.80;;;72.90;;
57325;SDS011;43161;50.950;18.224;2023-01-01T11:33:03;130.50;;;117.30;;
57325;SDS011;43161;50.950;18.224;2023-01-01T11:35:30;101.80;;;91.10;;
57325;SDS011;43161;50.950;18.224;2023-01-01T11:37:58;192.70;;;87.70;;
57325;SDS011;43161;50.950;18.224;2023-01-01T11:43:22;17.60;;;10.40;;
57325;SDS011;43161;50.950;18.224;2023-01-01T11:45:53;15.50;;;8.50;;
57325;SDS011;43161;50.950;18.224;2023-01-01T11:51:07;13.30;;;6.40;;
57325;SDS011;43161;50.950;18.224;2023-01-01T11:53:37;15.60;;;8.30;;
57325;SDS011;43161;50.950;18.224;2023-01-01T11:58:52;14.90;;;9.90;;
57325;SDS011;43161;50.950;18.224;2023-01-01T12:04:01;211.10;;;120.40;;
57325;SDS011;43161;50.950;18.224;2023-01-01T12:11:47;200.20;;;136.40;;
57325;SDS011;43161;50.950;18.224;2023-01-01T12:22:38;155.40;;;86.40;;
57325;SDS011;43161;50.950;18.224;2023-01-01T12:25:05;140.50;;;82.30;;
57325;SDS011;43161;50.950;18.224;2023-01-01T12:56:04;14.90;;;6.40;;
57325;SDS011;43161;50.950;18.224;2023-01-01T12:58:57;12.50;;;6.00;;
57325;SDS011;43161;50.950;18.224;2023-01-01T13:01:27;13.70;;;5.60;;
57325;SDS011;43161;50.950;18.224;2023-01-01T13:03:58;34.40;;;24.00;;
57325;SDS011;43161;50.950;18.224;2023-01-01T13:09:20;13.50;;;5.80;;
57325;SDS011;43161;50.950;18.224;2023-01-01T13:11:55;13.40;;;5.60;;
57325;SDS011;43161;50.950;18.224;2023-01-01T13:14:23;12.00;;;5.50;;
57325;SDS011;43161;50.950;18.224;2023-01-01T13:16:52;12.50;;;5.70;;
57325;SDS011;43161;50.950;18.224;2023-01-01T13:38:46;38.60;;;18.80;;
57325;SDS011;43161;50.950;18.224;2023-01-01T13:44:18;71.00;;;33.10;;
57325;SDS011;43161;50.950;18.224;2023-01-01T14:09:13;59.10;;;30.50;;
57325;SDS011;43161;50.950;18.224;2023-01-01T14:11:40;74.80;;;33.60;;
57325;SDS011;43161;50.950;18.224;2023-01-01T14:16:55;24.50;;;10.90;;
57325;SDS011;43161;50.950;18.224;2023-01-01T14:19:23;15.60;;;7.50;;
57325;SDS011;43161;50.950;18.224;2023-01-01T14:21:49;14.90;;;6.90;;
57325;SDS011;43161;50.950;18.224;2023-01-01T14:24:17;14.60;;;7.10;;
57325;SDS011;43161;50.950;18.224;2023-01-01T14:26:44;14.50;;;6.90;;
57325;SDS011;43161;50.950;18.224;2023-01-01T14:29:14;14.20;;;6.20;;
57325;SDS011;43161;50.950;18.224;2023-01-01T14:31:43;14.80;;;6.40;;
57325;SDS011;43161;50.950;18.224;2023-01-01T14:34:42;15.80;;;7.20;;
57325;SDS011;43161;50.950;18.224;2023-01-01T14:37:02;14.90;;;6.50;;
57325;SDS011;43161;50.950;18.224;2023-01-01T14:39:30;18.50;;;7.80;;
57325;SDS011;43161;50.950;18.224;2023-01-01T14:52:39;13.50;;;6.40;;
57325;SDS011;43161;50.950;18.224;2023-01-01T14:55:05;14.10;;;6.50;;
57325;SDS011;43161;50.950;18.224;2023-01-01T14:57:33;14.70;;;6.50;;
57325;SDS011;43161;50.950;18.224;2023-01-01T15:00:00;14.90;;;7.30;;
57325;SDS011;43161;50.950;18.224;2023-01-01T15:02:29;16.50;;;7.40;;
57325;SDS011;43161;50.950;18.224;2023-01-01T15:04:57;15.60;;;7.30;;
57325;SDS011;43161;50.950;18.224;2023-01-01T15:07:27;17.90;;;8.20;;
57325;SDS011;43161;50.950;18.224;2023-01-01T15:09:56;15.70;;;7.30;;
57325;SDS011;43161;50.950;18.224;2023-01-01T15:12:24;14.50;;;6.40;;
57325;SDS011;43161;50.950;18.224;2023-01-01T15:14:51;16.50;;;7.70;;
57325;SDS011;43161;50.950;18.224;2023-01-01T15:17:21;16.20;;;7.40;;
57325;SDS011;43161;50.950;18.224;2023-01-01T15:22:52;16.50;;;8.40;;
57325;SDS011;43161;50.950;18.224;2023-01-01T15:25:18;18.30;;;8.90;;
57325;SDS011;43161;50.950;18.224;2023-01-01T15:27:51;21.80;;;11.80;;
57325;SDS011;43161;50.950;18.224;2023-01-01T15:30:25;29.80;;;16.00;;
57325;SDS011;43161;50.950;18.224;2023-01-01T15:32:52;21.70;;;11.60;;
57325;SDS011;43161;50.950;18.224;2023-01-01T15:37:47;22.10;;;13.30;;
57325;SDS011;43161;50.950;18.224;2023-01-01T15:42:46;27.20;;;15.50;;
57325;SDS011;43161;50.950;18.224;2023-01-01T15:53:32;65.30;;;36.00;;
57325;SDS011;43161;50.950;18.224;2023-01-01T15:56:22;37.50;;;18.60;;
57325;SDS011;43161;50.950;18.224;2023-01-01T15:59:33;37.30;;;21.30;;
57325;SDS011;43161;50.950;18.224;2023-01-01T16:01:42;62.80;;;37.80;;
57325;SDS011;43161;50.950;18.224;2023-01-01T16:06:53;71.20;;;40.20;;
57325;SDS011;43161;50.950;18.224;2023-01-01T16:09:20;43.40;;;25.80;;
57325;SDS011;43161;50.950;18.224;2023-01-01T16:11:53;47.50;;;28.00;;
57325;SDS011;43161;50.950;18.224;2023-01-01T16:14:19;32.40;;;19.40;;
57325;SDS011;43161;50.950;18.224;2023-01-01T16:16:48;29.00;;;14.80;;
57325;SDS011;43161;50.950;18.224;2023-01-01T16:19:17;28.60;;;15.30;;
57325;SDS011;43161;50.950;18.224;2023-01-01T16:21:43;37.90;;;18.30;;
57325;SDS011;43161;50.950;18.224;2023-01-01T16:24:11;28.60;;;14.70;;
57325;SDS011;43161;50.950;18.224;2023-01-01T16:26:39;24.00;;;11.20;;
57325;SDS011;43161;50.950;18.224;2023-01-01T16:29:05;22.80;;;10.70;;
57325;SDS011;43161;50.950;18.224;2023-01-01T16:31:31;24.40;;;11.20;;
57325;SDS011;43161;50.950;18.224;2023-01-01T16:33:57;22.50;;;11.20;;
57325;SDS011;43161;50.950;18.224;2023-01-01T16:36:23;25.10;;;13.50;;
57325;SDS011;43161;50.950;18.224;2023-01-01T16:38:52;28.00;;;13.10;;
57325;SDS011;43161;50.950;18.224;2023-01-01T16:41:18;32.10;;;16.70;;
57325;SDS011;43161;50.950;18.224;2023-01-01T16:43:44;39.50;;;19.40;;
57325;SDS011;43161;50.950;18.224;2023-01-01T16:46:10;39.10;;;18.00;;
57325;SDS011;43161;50.950;18.224;2023-01-01T16:48:36;36.10;;;16.60;;
57325;SDS011;43161;50.950;18.224;2023-01-01T16:51:03;35.00;;;15.20;;
57325;SDS011;43161;50.950;18.224;2023-01-01T16:53:30;33.00;;;17.40;;
57325;SDS011;43161;50.950;18.224;2023-01-01T16:55:56;34.30;;;17.20;;
57325;SDS011;43161;50.950;18.224;2023-01-01T16:58:22;32.90;;;16.70;;
57325;SDS011;43161;50.950;18.224;2023-01-01T17:00:48;36.10;;;16.10;;
57325;SDS011;43161;50.950;18.224;2023-01-01T17:03:15;34.40;;;18.10;;
57325;SDS011;43161;50.950;18.224;2023-01-01T17:05:41;26.80;;;13.70;;
57325;SDS011;43161;50.950;18.224;2023-01-01T17:08:07;29.10;;;13.20;;
57325;SDS011;43161;50.950;18.224;2023-01-01T17:10:32;29.00;;;14.10;;
57325;SDS011;43161;50.950;18.224;2023-01-01T17:12:58;29.70;;;16.30;;
57325;SDS011;43161;50.950;18.224;2023-01-01T17:15:27;30.10;;;14.70;;
57325;SDS011;43161;50.950;18.224;2023-01-01T17:17:53;27.40;;;14.30;;
57325;SDS011;43161;50.950;18.224;2023-01-01T17:20:19;29.70;;;13.90;;
57325;SDS011;43161;50.950;18.224;2023-01-01T17:22:45;26.10;;;14.10;;
57325;SDS011;43161;50.950;18.224;2023-01-01T17:25:11;31.00;;;15.60;;
57325;SDS011;43161;50.950;18.224;2023-01-01T17:27:37;36.30;;;19.50;;
57325;SDS011;43161;50.950;18.224;2023-01-01T17:30:03;34.20;;;19.80;;
57325;SDS011;43161;50.950;18.224;2023-01-01T17:32:31;31.20;;;16.60;;
57325;SDS011;43161;50.950;18.224;2023-01-01T17:35:01;38.40;;;21.50;;
57325;SDS011;43161;50.950;18.224;2023-01-01T17:37:27;29.90;;;14.50;;
57325;SDS011;43161;50.950;18.224;2023-01-01T17:39:52;43.30;;;21.70;;
57325;SDS011;43161;50.950;18.224;2023-01-01T17:42:18;51.90;;;26.00;;
57325;SDS011;43161;50.950;18.224;2023-01-01T17:44:44;77.00;;;34.80;;
57325;SDS011;43161;50.950;18.224;2023-01-01T17:47:10;77.20;;;34.30;;
57325;SDS011;43161;50.950;18.224;2023-01-01T17:49:36;65.40;;;32.80;;
57325;SDS011;43161;50.950;18.224;2023-01-01T17:52:02;43.70;;;23.70;;
57325;SDS011;43161;50.950;18.224;2023-01-01T17:54:28;42.00;;;24.30;;
57325;SDS011;43161;50.950;18.224;2023-01-01T17:56:53;52.80;;;28.40;;
57325;SDS011;43161;50.950;18.224;2023-01-01T17:59:22;43.70;;;21.40;;
57325;SDS011;43161;50.950;18.224;2023-01-01T18:01:48;53.40;;;30.50;;
57325;SDS011;43161;50.950;18.224;2023-01-01T18:04:14;29.20;;;16.00;;
57325;SDS011;43161;50.950;18.224;2023-01-01T18:06:40;38.70;;;24.10;;
57325;SDS011;43161;50.950;18.224;2023-01-01T18:09:06;42.30;;;21.50;;